Eutaw, North Carolina
Current Conditions -  °F | °C
As of 12:24 PM on Wednesday 26 Nov 2014 (Local Time) from KPOB Reporting Station
Overcast Overcast  
Wind Chill: 44°   Ceiling: 1000
Heat Index: 48°   Visibility: 10mi
Dew Point: 45°   Wind: 10mph
Humidity: 87%   Direction: 330°NNW
Pressure: 29.92"   Gusts: NA
Location:  35.0916°N, 79.0106°W
Report Text: KPOB 261724Z AUTO 33009KT 10SM OVC010 09/07 A2992 RMK AO2 DZE1659 OVC V BKN
Loading
Personal Weather Stations






























Interactive Weather Map New forecast layout! Learn more

10-Day Weather Forecast

Advertisements
Track Severe Weather on mobile